Time;durP1;ratioP1;P1;durP2;ratioP2;P2;SDS_P1;SDS_P2;PMS_P1;PMS_P2;Temp;Humidity;BMP_temperature;BMP_pressure;BME280_temperature;BME280_humidity;BME280_pressure;Samples;Min_cycle;Max_cycle;Signal;HPM_P1;HPM_P2
2023/04/29 00:02:19;;;;;;;;;;;;;;;24.04;21.13;97974.16;5104942;28;19919;-79
2023/04/29 00:04:45;;;;;;;;;;;;;;;23.91;21.45;97979.69;5116446;28;19939;-79
2023/04/29 00:07:14;;;;;;;;;;;;;;;24.00;21.53;97977.06;5116522;28;19955;-80
2023/04/29 00:09:40;;;;;;;;;;;;;;;23.74;21.27;97977.28;5106098;28;19984;-79
2023/04/29 00:12:06;;;;;;;;;;;;;;;23.23;22.23;97973.91;5113775;28;19985;-79
2023/04/29 00:14:32;;;;;;;;;;;;;;;23.14;22.53;97979.31;5091419;28;20350;-79
2023/04/29 00:16:58;;;;;;;;;;;;;;;23.55;21.65;97973.28;5103395;28;19987;-79
2023/04/29 00:19:24;;;;;;;;;;;;;;;23.95;21.69;97974.78;5113673;28;19959;-81
2023/04/29 00:21:51;;;;;;;;;;;;;;;24.21;21.29;97978.59;5115112;28;19920;-79
2023/04/29 00:24:17;;;;;;;;;;;;;;;24.27;21.16;97967.66;5113326;28;19946;-79
2023/04/29 00:26:43;;;;;;;;;;;;;;;24.33;21.07;97971.50;5112892;28;19938;-80
2023/04/29 00:29:09;;;;;;;;;;;;;;;24.30;21.00;97964.75;5112741;28;19920;-79
2023/04/29 00:31:36;;;;;;;;;;;;;;;24.37;20.80;97967.38;5111595;28;20272;-79
2023/04/29 00:34:02;;;;;;;;;;;;;;;24.32;20.98;97975.56;5108787;28;19924;-79
2023/04/29 00:36:28;;;;;;;;;;;;;;;24.43;20.95;97979.69;5098366;28;19924;-79
2023/04/29 00:38:54;;;;;;;;;;;;;;;24.54;20.72;97970.97;5110970;28;19916;-79
2023/04/29 00:41:20;;;;;;;;;;;;;;;24.25;20.66;97968.09;5112825;28;20357;-81
2023/04/29 00:43:46;;;;;;;;;;;;;;;23.84;21.58;97968.63;5110647;28;19949;-81
2023/04/29 00:46:12;;;;;;;;;;;;;;;23.96;21.04;97962.34;5105034;28;19931;-79
2023/04/29 00:48:38;;;;;;;;;;;;;;;23.92;21.54;97958.06;5112384;28;20003;-79
2023/04/29 00:51:04;;;;;;;;;;;;;;;24.07;21.49;97959.31;5112708;28;20019;-79
2023/04/29 00:53:31;;;;;;;;;;;;;;;24.17;21.06;97955.47;5103631;28;19965;-79
2023/04/29 00:55:59;;;;;;;;;;;;;;;23.73;21.54;97958.88;5114626;28;20363;-79
2023/04/29 00:58:31;;;;;;;;;;;;;;;23.61;22.18;97954.75;5114465;28;19920;-79
2023/04/29 01:01:02;;;;;;;;;;;;;;;23.70;21.62;97957.75;5111352;28;19939;-79
2023/04/29 01:03:29;;;;;;;;;;;;;;;23.75;21.77;97956.44;5112546;28;19926;-79
2023/04/29 01:06:05;;;;;;;;;;;;;;;23.86;21.46;97954.97;5102683;28;19919;-81
2023/04/29 01:08:44;;;;;;;;;;;;;;;23.94;22.01;97955.59;5114582;28;19965;-81
2023/04/29 01:11:11;;;;;;;;;;;;;;;24.20;21.82;97954.56;5111304;28;20299;-79
2023/04/29 01:13:49;;;;;;;;;;;;;;;24.14;21.70;97950.72;5112312;28;19972;-79
2023/04/29 01:16:30;;;;;;;;;;;;;;;23.93;22.13;97954.00;5108249;28;19927;-79
2023/04/29 01:18:58;;;;;;;;;;;;;;;23.99;22.48;97950.25;5100280;28;19943;-81
2023/04/29 01:21:24;;;;;;;;;;;;;;;24.13;22.30;97946.38;5114558;28;19919;-81
2023/04/29 01:23:54;;;;;;;;;;;;;;;24.19;21.92;97952.22;5108233;28;20439;-81
2023/04/29 01:26:21;;;;;;;;;;;;;;;24.22;21.96;97951.34;5109018;28;19919;-81
2023/04/29 01:28:53;;;;;;;;;;;;;;;24.52;22.22;97957.41;5110533;28;19988;-81
2023/04/29 01:31:31;;;;;;;;;;;;;;;24.89;21.71;97953.22;5086921;28;19924;-81
2023/04/29 01:34:00;;;;;;;;;;;;;;;24.58;22.63;97952.03;5105380;28;19920;-81
2023/04/29 01:36:34;;;;;;;;;;;;;;;24.47;22.92;97948.69;5101924;28;19920;-81
2023/04/29 01:39:09;;;;;;;;;;;;;;;24.68;23.21;97950.97;5109201;28;19920;-81
2023/04/29 01:41:41;;;;;;;;;;;;;;;25.08;22.24;97945.88;5110475;28;19962;-81
2023/04/29 01:44:07;;;;;;;;;;;;;;;25.23;22.39;97935.81;5111157;28;20413;-80
2023/04/29 01:46:34;;;;;;;;;;;;;;;25.39;22.00;97939.34;5107956;28;19920;-79
2023/04/29 01:49:00;;;;;;;;;;;;;;;25.41;21.79;97936.09;5106256;28;19928;-81
2023/04/29 01:51:30;;;;;;;;;;;;;;;25.42;22.20;97935.63;5109206;28;19963;-81
2023/04/29 01:53:56;;;;;;;;;;;;;;;25.40;22.28;97929.69;5106327;28;19924;-81
2023/04/29 01:56:22;;;;;;;;;;;;;;;25.33;22.58;97926.28;5089231;28;20021;-81
2023/04/29 01:58:48;;;;;;;;;;;;;;;25.59;21.85;97925.13;5107850;28;20435;-81
2023/04/29 02:01:14;;;;;;;;;;;;;;;25.77;22.00;97919.75;5108301;28;19931;-81
2023/04/29 02:03:40;;;;;;;;;;;;;;;25.53;22.40;97926.16;5105188;28;19927;-82
2023/04/29 02:06:06;;;;;;;;;;;;;;;24.98;22.64;97928.09;5109484;28;20059;-79
2023/04/29 02:08:32;;;;;;;;;;;;;;;24.77;22.82;97925.06;5110095;28;20454;-80
2023/04/29 02:10:59;;;;;;;;;;;;;;;24.51;23.48;97944.56;5107288;28;20023;-80
2023/04/29 02:13:25;;;;;;;;;;;;;;;24.76;22.58;97935.53;5109120;28;19973;-80
2023/04/29 02:15:51;;;;;;;;;;;;;;;24.69;23.05;97938.50;5109728;28;19923;-80
2023/04/29 02:18:17;;;;;;;;;;;;;;;24.96;22.48;97924.94;5109196;28;20299;-80
2023/04/29 02:20:43;;;;;;;;;;;;;;;24.72;23.21;97929.19;5094240;28;19924;-80
2023/04/29 02:23:09;;;;;;;;;;;;;;;24.85;23.32;97932.88;5103386;28;20385;-80
2023/04/29 02:25:36;;;;;;;;;;;;;;;25.00;22.91;97931.25;5111715;28;20328;-80
2023/04/29 02:28:02;;;;;;;;;;;;;;;25.03;22.88;97935.97;5108082;28;19924;-80
2023/04/29 02:30:28;;;;;;;;;;;;;;;25.35;22.86;97930.22;5112343;28;19924;-80
2023/04/29 02:32:54;;;;;;;;;;;;;;;25.64;22.59;97929.41;5111965;28;20007;-80
2023/04/29 02:35:20;;;;;;;;;;;;;;;25.61;22.35;97927.47;5108888;28;20401;-80
2023/04/29 02:37:46;;;;;;;;;;;;;;;25.76;22.52;97928.63;5102591;28;20379;-80
2023/04/29 02:40:12;;;;;;;;;;;;;;;25.75;22.10;97927.06;5112472;28;19984;-80
2023/04/29 02:42:38;;;;;;;;;;;;;;;25.83;22.38;97931.22;5112631;28;19980;-80
2023/04/29 02:45:04;;;;;;;;;;;;;;;25.83;22.81;97928.41;5111126;28;19923;-80
2023/04/29 02:47:30;;;;;;;;;;;;;;;26.04;22.79;97922.88;5111792;28;20364;-80
2023/04/29 02:49:56;;;;;;;;;;;;;;;26.15;22.03;97921.78;5106774;28;19966;-80
2023/04/29 02:52:22;;;;;;;;;;;;;;;26.21;22.11;97915.13;5102267;28;20002;-80
2023/04/29 02:54:48;;;;;;;;;;;;;;;25.89;22.34;97916.16;5100739;28;20018;-80
2023/04/29 02:57:14;;;;;;;;;;;;;;;25.76;23.02;97918.19;5110446;28;20339;-80
2023/04/29 02:59:40;;;;;;;;;;;;;;;25.81;23.27;97922.47;5110927;28;20061;-80
2023/04/29 03:02:06;;;;;;;;;;;;;;;26.03;22.95;97921.31;5110718;28;20371;-80
2023/04/29 03:04:32;;;;;;;;;;;;;;;26.12;22.36;97919.88;5109179;28;20375;-80
2023/04/29 03:06:58;;;;;;;;;;;;;;;26.01;22.81;97918.19;5110117;28;19920;-80
2023/04/29 03:09:25;;;;;;;;;;;;;;;26.20;22.84;97922.00;5111694;28;20018;-80
2023/04/29 03:11:51;;;;;;;;;;;;;;;26.32;22.36;97918.41;5110028;28;19920;-80
2023/04/29 03:14:17;;;;;;;;;;;;;;;26.04;22.73;97917.25;5103341;28;19920;-80
2023/04/29 03:16:43;;;;;;;;;;;;;;;26.25;22.49;97913.00;5115299;28;20299;-80
2023/04/29 03:19:09;;;;;;;;;;;;;;;26.21;22.61;97908.72;5104132;28;20355;-80
2023/04/29 03:21:36;;;;;;;;;;;;;;;26.22;22.73;97913.91;5109586;28;20018;-80
2023/04/29 03:24:02;;;;;;;;;;;;;;;26.21;22.73;97911.56;5100911;28;19920;-80
2023/04/29 03:26:28;;;;;;;;;;;;;;;26.25;22.98;97915.81;5111295;28;19927;-81
2023/04/29 03:28:54;;;;;;;;;;;;;;;26.23;23.11;97909.06;5116455;28;19984;-80
2023/04/29 03:31:21;;;;;;;;;;;;;;;26.11;23.25;97912.69;5116422;28;19916;-80
2023/04/29 03:33:47;;;;;;;;;;;;;;;26.43;23.17;97913.19;5105013;28;19927;-80
2023/04/29 03:36:14;;;;;;;;;;;;;;;26.57;23.01;97915.50;5107198;28;19912;-80
2023/04/29 03:38:40;;;;;;;;;;;;;;;26.63;22.45;97913.69;5110703;28;20390;-80
2023/04/29 03:41:06;;;;;;;;;;;;;;;26.58;22.77;97917.06;5110416;28;20057;-80
2023/04/29 03:43:32;;;;;;;;;;;;;;;26.70;22.90;97923.91;5106054;28;19930;-80
2023/04/29 03:45:58;;;;;;;;;;;;;;;26.84;22.91;97920.63;5114686;28;20279;-80
2023/04/29 03:48:24;;;;;;;;;;;;;;;26.91;22.70;97917.56;5115948;28;19919;-80
2023/04/29 03:50:50;;;;;;;;;;;;;;;27.06;22.69;97918.63;5116394;28;19922;-80
2023/04/29 03:53:17;;;;;;;;;;;;;;;27.00;22.74;97930.94;5114961;28;19920;-80
2023/04/29 03:55:43;;;;;;;;;;;;;;;26.98;23.39;97925.00;5110337;28;20019;-80
2023/04/29 03:58:09;;;;;;;;;;;;;;;27.14;23.00;97931.19;5114551;28;19963;-80
2023/04/29 04:00:35;;;;;;;;;;;;;;;27.08;22.68;97921.75;5104675;28;19967;-80
2023/04/29 04:03:01;;;;;;;;;;;;;;;26.77;23.37;97920.88;5100687;28;19969;-80
2023/04/29 04:05:28;;;;;;;;;;;;;;;26.24;24.63;97921.88;5116096;28;19916;-80
2023/04/29 04:07:54;;;;;;;;;;;;;;;26.12;24.04;97919.88;5111122;28;19916;-79
2023/04/29 04:10:20;;;;;;;;;;;;;;;25.86;24.77;97921.88;5105603;28;20035;-79
2023/04/29 04:12:46;;;;;;;;;;;;;;;25.96;24.66;97918.75;5106485;28;19938;-79
2023/04/29 04:15:12;;;;;;;;;;;;;;;25.91;25.03;97910.06;5109618;28;19938;-80
2023/04/29 04:17:38;;;;;;;;;;;;;;;25.83;25.26;97914.34;5109005;28;19924;-79
2023/04/29 04:20:04;;;;;;;;;;;;;;;26.04;25.09;97914.44;5106791;28;19924;-79
2023/04/29 04:22:30;;;;;;;;;;;;;;;26.05;24.76;97913.22;5108216;28;19924;-80
2023/04/29 04:24:56;;;;;;;;;;;;;;;26.12;25.25;97920.66;5109817;28;19942;-79
2023/04/29 04:27:22;;;;;;;;;;;;;;;26.08;24.93;97912.31;5113552;28;19919;-80
2023/04/29 04:29:52;;;;;;;;;;;;;;;25.97;25.45;97914.69;5113845;28;20379;-80
2023/04/29 04:32:18;;;;;;;;;;;;;;;26.25;24.96;97918.63;5106426;28;20014;-81
2023/04/29 04:34:44;;;;;;;;;;;;;;;26.10;25.18;97914.69;5111862;28;20019;-80
2023/04/29 04:37:10;;;;;;;;;;;;;;;25.96;25.69;97915.91;5099619;28;19985;-80
2023/04/29 04:39:37;;;;;;;;;;;;;;;26.08;25.34;97912.31;5099960;28;20283;-80
2023/04/29 04:42:03;;;;;;;;;;;;;;;26.03;25.66;97909.28;5107702;28;19919;-80
2023/04/29 04:44:30;;;;;;;;;;;;;;;26.01;25.78;97906.91;5110228;28;19923;-80
2023/04/29 04:46:56;;;;;;;;;;;;;;;26.01;25.36;97903.31;5107940;28;20017;-80
2023/04/29 04:49:23;;;;;;;;;;;;;;;25.93;25.50;97905.56;5097163;28;19923;-81
2023/04/29 04:51:50;;;;;;;;;;;;;;;25.97;25.92;97905.47;5113062;28;19920;-80
2023/04/29 04:54:16;;;;;;;;;;;;;;;25.99;25.87;97908.59;5113387;28;19926;-80
2023/04/29 04:56:42;;;;;;;;;;;;;;;25.93;25.98;97904.78;5114320;28;19938;-81
2023/04/29 04:59:08;;;;;;;;;;;;;;;26.07;25.75;97893.84;5115181;28;19992;-80
2023/04/29 05:01:34;;;;;;;;;;;;;;;26.14;25.95;97897.72;5114546;28;19964;-80
2023/04/29 05:04:01;;;;;;;;;;;;;;;26.28;25.88;97900.06;5104665;28;19951;-80
2023/04/29 05:06:28;;;;;;;;;;;;;;;26.32;25.77;97893.06;5113274;28;19919;-80
2023/04/29 05:08:54;;;;;;;;;;;;;;;26.24;25.94;97902.97;5106367;28;20005;-80
2023/04/29 05:11:20;;;;;;;;;;;;;;;26.34;25.76;97893.38;5105186;28;19977;-81
2023/04/29 05:13:47;;;;;;;;;;;;;;;26.54;25.56;97907.97;5113918;28;19919;-80
2023/04/29 05:16:13;;;;;;;;;;;;;;;26.91;25.80;97905.53;5111004;28;19920;-80
2023/04/29 05:18:40;;;;;;;;;;;;;;;27.16;25.23;97908.22;5108284;28;19921;-80
2023/04/29 05:21:05;;;;;;;;;;;;;;;27.28;25.31;97905.28;5103375;28;20375;-80
2023/04/29 05:23:32;;;;;;;;;;;;;;;27.52;24.89;97916.91;5113807;28;19931;-80
2023/04/29 05:25:58;;;;;;;;;;;;;;;27.58;24.74;97909.44;5109956;28;19920;-80
2023/04/29 05:28:24;;;;;;;;;;;;;;;27.55;25.04;97910.34;5111781;28;19924;-81
2023/04/29 05:30:50;;;;;;;;;;;;;;;27.65;25.00;97914.81;5106201;28;19930;-81
2023/04/29 05:33:16;;;;;;;;;;;;;;;27.84;25.24;97907.97;5105360;28;19920;-81
2023/04/29 05:35:42;;;;;;;;;;;;;;;27.91;25.26;97902.03;5104430;28;19928;-81
2023/04/29 05:38:09;;;;;;;;;;;;;;;27.91;25.21;97904.09;5108939;28;19964;-81
2023/04/29 05:40:35;;;;;;;;;;;;;;;27.86;25.49;97913.19;5091301;28;20342;-81
2023/04/29 05:43:01;;;;;;;;;;;;;;;27.77;25.54;97899.03;5105315;28;19952;-81
2023/04/29 05:45:27;;;;;;;;;;;;;;;27.83;25.53;97914.88;5101448;28;19916;-81
2023/04/29 05:47:53;;;;;;;;;;;;;;;27.92;25.45;97908.47;5101377;28;19924;-81
2023/04/29 05:50:20;;;;;;;;;;;;;;;27.69;25.42;97909.81;5109014;28;19915;-81
2023/04/29 05:52:46;;;;;;;;;;;;;;;27.65;25.86;97916.84;5094669;28;19928;-81
2023/04/29 05:55:12;;;;;;;;;;;;;;;27.80;25.84;97912.97;5110286;28;20018;-81
2023/04/29 05:57:38;;;;;;;;;;;;;;;27.89;25.70;97918.66;5113376;28;19938;-81
2023/04/29 06:00:05;;;;;;;;;;;;;;;27.83;25.71;97917.72;5108928;28;19989;-81
2023/04/29 06:02:33;;;;;;;;;;;;;;;27.81;25.52;97917.38;5082478;28;19986;-81
2023/04/29 06:04:59;;;;;;;;;;;;;;;28.06;25.58;97913.59;5102479;28;19956;-83
2023/04/29 06:07:26;;;;;;;;;;;;;;;28.04;25.69;97922.53;5106354;28;19966;-82
2023/04/29 06:09:53;;;;;;;;;;;;;;;28.13;25.12;97929.44;5107870;28;19920;-82
2023/04/29 06:12:20;;;;;;;;;;;;;;;28.16;24.62;97923.66;5101396;28;19920;-83
2023/04/29 06:14:46;;;;;;;;;;;;;;;28.18;25.16;97917.53;5106184;28;20046;-84
2023/04/29 06:17:12;;;;;;;;;;;;;;;28.41;25.33;97919.78;5109820;28;19951;-83
2023/04/29 06:19:38;;;;;;;;;;;;;;;28.47;25.05;97915.13;5109085;28;19920;-83
2023/04/29 06:22:04;;;;;;;;;;;;;;;28.50;25.09;97911.34;5103010;28;19931;-83
2023/04/29 06:24:30;;;;;;;;;;;;;;;28.57;25.32;97911.03;5109517;28;20015;-83
2023/04/29 06:26:56;;;;;;;;;;;;;;;28.58;25.21;97904.16;5108532;28;19924;-83
2023/04/29 06:29:22;;;;;;;;;;;;;;;28.55;25.14;97902.25;5106487;28;20368;-83
2023/04/29 06:31:48;;;;;;;;;;;;;;;28.61;24.89;97906.06;5107451;28;20027;-83
2023/04/29 06:34:14;;;;;;;;;;;;;;;28.55;24.70;97900.22;5111431;28;20030;-83
2023/04/29 06:36:40;;;;;;;;;;;;;;;28.71;24.30;97905.59;5112393;28;19920;-83
2023/04/29 06:39:06;;;;;;;;;;;;;;;28.55;25.33;97902.25;5104021;28;19920;-85
2023/04/29 06:41:33;;;;;;;;;;;;;;;28.52;25.17;97903.22;5109212;28;19919;-85
2023/04/29 06:43:59;;;;;;;;;;;;;;;28.61;25.26;97900.41;5113873;28;19942;-83
2023/04/29 06:46:26;;;;;;;;;;;;;;;28.65;25.10;97899.00;5104344;28;19983;-86
2023/04/29 06:48:52;;;;;;;;;;;;;;;28.65;25.09;97901.84;5090275;28;19931;-83
2023/04/29 06:51:18;;;;;;;;;;;;;;;28.60;25.28;97901.66;5106817;28;20435;-83
2023/04/29 06:53:45;;;;;;;;;;;;;;;28.47;24.89;97901.00;5103869;28;19916;-83
2023/04/29 06:56:11;;;;;;;;;;;;;;;28.62;24.79;97913.28;5105125;28;20376;-82
2023/04/29 06:58:38;;;;;;;;;;;;;;;28.75;25.16;97909.03;5103526;28;19924;-83
2023/04/29 07:01:06;;;;;;;;;;;;;;;28.88;25.35;97913.75;5111541;28;19926;-83
2023/04/29 07:03:31;;;;;;;;;;;;;;;28.87;24.12;97903.72;5101157;28;19928;-83
2023/04/29 07:05:57;;;;;;;;;;;;;;;28.70;24.57;97908.91;5109926;28;19923;-83
2023/04/29 07:08:24;;;;;;;;;;;;;;;28.79;24.28;97908.13;5102392;28;19924;-83
2023/04/29 07:10:54;;;;;;;;;;;;;;;28.54;23.85;97904.28;5108449;28;19916;-83
2023/04/29 07:13:20;;;;;;;;;;;;;;;28.39;25.13;97905.38;5105083;28;19927;-83
2023/04/29 07:15:46;;;;;;;;;;;;;;;28.60;25.07;97904.50;5108307;28;19924;-83
2023/04/29 07:18:12;;;;;;;;;;;;;;;28.62;24.68;97902.78;5105143;28;20023;-83
2023/04/29 07:20:38;;;;;;;;;;;;;;;28.84;24.98;97905.47;5108927;27;20371;-83
2023/04/29 07:23:04;;;;;;;;;;;;;;;28.21;24.82;97905.31;5106114;28;19958;-82
2023/04/29 07:25:31;;;;;;;;;;;;;;;28.56;23.78;97904.63;5106246;28;19959;-83
2023/04/29 07:27:56;;;;;;;;;;;;;;;28.72;25.94;97907.19;5108507;28;19924;-83
2023/04/29 07:30:23;;;;;;;;;;;;;;;28.93;24.09;97905.44;5098904;28;19927;-83
2023/04/29 07:32:49;;;;;;;;;;;;;;;29.11;25.22;97899.78;5097344;28;20082;-82
2023/04/29 07:35:15;;;;;;;;;;;;;;;29.55;24.96;97900.19;5098040;28;20441;-83
2023/04/29 07:37:42;;;;;;;;;;;;;;;29.48;24.62;97908.25;5095710;28;20299;-83
2023/04/29 07:40:08;;;;;;;;;;;;;;;29.55;24.34;97897.38;5107032;28;20399;-83
2023/04/29 07:42:34;;;;;;;;;;;;;;;29.35;24.17;97905.59;5104303;28;20287;-83
2023/04/29 07:45:00;;;;;;;;;;;;;;;29.72;24.76;97892.91;5101789;28;20331;-84
2023/04/29 07:47:26;;;;;;;;;;;;;;;29.72;24.76;97894.94;5098743;28;20043;-83
2023/04/29 07:49:53;;;;;;;;;;;;;;;29.77;24.91;97897.19;5100646;28;20010;-83
2023/04/29 07:52:19;;;;;;;;;;;;;;;30.11;24.41;97898.78;5097545;28;19973;-83
2023/04/29 07:54:45;;;;;;;;;;;;;;;30.13;24.00;97902.66;5102440;28;19919;-83
2023/04/29 07:57:11;;;;;;;;;;;;;;;30.12;23.90;97903.16;5102418;28;20463;-84
2023/04/29 07:59:37;;;;;;;;;;;;;;;30.30;24.01;97898.16;5084367;28;19931;-84
2023/04/29 08:02:03;;;;;;;;;;;;;;;30.78;24.11;97899.75;5105930;28;19924;-84
2023/04/29 08:04:29;;;;;;;;;;;;;;;30.80;23.42;97899.28;5102564;28;19931;-84
2023/04/29 08:06:55;;;;;;;;;;;;;;;30.93;24.03;97899.81;5104743;28;19920;-84
2023/04/29 08:09:21;;;;;;;;;;;;;;;31.27;24.57;97901.28;5105275;28;19955;-84
2023/04/29 08:11:47;;;;;;;;;;;;;;;31.70;23.71;97899.72;5103118;28;19924;-84
2023/04/29 08:14:13;;;;;;;;;;;;;;;31.49;23.15;97907.38;5104779;28;19972;-83
2023/04/29 08:16:40;;;;;;;;;;;;;;;31.62;23.43;97907.88;5100858;28;19935;-85
2023/04/29 08:19:06;;;;;;;;;;;;;;;31.96;22.18;97903.50;5097012;28;19959;-83
2023/04/29 08:21:33;;;;;;;;;;;;;;;31.59;22.75;97908.06;5080227;28;19924;-84
2023/04/29 08:23:59;;;;;;;;;;;;;;;31.37;24.58;97906.34;5103566;28;19927;-85
2023/04/29 08:26:26;;;;;;;;;;;;;;;31.58;24.21;97904.44;5100338;28;19927;-85
2023/04/29 08:28:52;;;;;;;;;;;;;;;31.85;23.56;97903.34;5106315;28;19934;-85
2023/04/29 08:31:19;;;;;;;;;;;;;;;32.30;23.36;97907.69;5101407;28;20251;-85
2023/04/29 08:33:45;;;;;;;;;;;;;;;32.29;22.12;97898.38;5085164;28;20286;-85
2023/04/29 08:36:11;;;;;;;;;;;;;;;31.77;22.64;97899.31;5102941;28;19928;-84
2023/04/29 08:38:37;;;;;;;;;;;;;;;31.76;22.96;97903.44;5100616;28;19920;-84
2023/04/29 08:41:03;;;;;;;;;;;;;;;31.58;22.14;97898.75;5102848;28;19924;-84
2023/04/29 08:43:30;;;;;;;;;;;;;;;31.98;23.84;97898.94;5104851;28;19928;-85
2023/04/29 08:45:57;;;;;;;;;;;;;;;32.39;23.05;97894.13;5100707;28;19920;-85
2023/04/29 08:48:25;;;;;;;;;;;;;;;32.57;23.11;97895.94;5099905;28;19920;-85
2023/04/29 08:50:51;;;;;;;;;;;;;;;32.24;22.07;97895.44;5105728;28;20414;-85
2023/04/29 08:53:17;;;;;;;;;;;;;;;32.09;23.60;97896.25;5089076;28;20505;-85
2023/04/29 08:55:44;;;;;;;;;;;;;;;32.44;23.43;97898.34;5105661;28;20284;-85
2023/04/29 08:58:11;;;;;;;;;;;;;;;32.91;23.04;97903.59;5109458;28;19955;-85
2023/04/29 09:00:38;;;;;;;;;;;;;;;33.32;22.97;97902.31;5098606;28;19923;-84
2023/04/29 09:03:23;;;;;;;;;;;;;;;33.71;22.42;97897.00;5106642;28;20015;-86
2023/04/29 09:05:52;;;;;;;;;;;;;;;33.97;21.08;97888.41;5100251;28;20416;-85
2023/04/29 09:08:20;;;;;;;;;;;;;;;34.00;21.94;97899.56;5105109;28;19920;-85
2023/04/29 09:10:46;;;;;;;;;;;;;;;34.11;21.77;97893.22;5108648;28;19924;-84
2023/04/29 09:13:26;;;;;;;;;;;;;;;34.11;22.50;97892.41;5102444;28;19923;-85
2023/04/29 09:15:52;;;;;;;;;;;;;;;34.27;21.78;97891.75;5098834;28;19928;-85
2023/04/29 09:18:37;;;;;;;;;;;;;;;34.36;22.09;97892.31;5098959;28;20402;-85
2023/04/29 09:21:22;;;;;;;;;;;;;;;34.42;22.21;97889.50;5104537;28;19973;-85
2023/04/29 09:23:55;;;;;;;;;;;;;;;34.45;22.25;97882.81;5102576;28;20303;-84
2023/04/29 09:26:22;;;;;;;;;;;;;;;34.72;22.87;97893.59;5105261;28;19928;-85
2023/04/29 09:29:15;;;;;;;;;;;;;;;34.41;19.74;97887.94;5100026;28;19977;-85
2023/04/29 09:31:41;;;;;;;;;;;;;;;33.78;20.81;97890.84;5102789;28;19923;-85
2023/04/29 09:34:07;;;;;;;;;;;;;;;33.67;22.75;97890.75;5103652;28;19938;-85
2023/04/29 09:36:39;;;;;;;;;;;;;;;34.05;21.59;97889.53;5085546;28;20397;-83
2023/04/29 09:39:10;;;;;;;;;;;;;;;34.05;22.50;97884.59;5102729;28;19926;-84
2023/04/29 09:41:37;;;;;;;;;;;;;;;34.13;21.19;97892.69;5096279;28;19928;-82
2023/04/29 09:44:06;;;;;;;;;;;;;;;34.07;21.64;97890.56;5108708;28;20298;-83
2023/04/29 09:46:33;;;;;;;;;;;;;;;33.73;20.26;97885.09;5097917;28;20295;-83
2023/04/29 09:49:03;;;;;;;;;;;;;;;33.66;20.94;97882.72;5099305;28;20276;-83
2023/04/29 09:51:31;;;;;;;;;;;;;;;33.37;20.41;97886.56;5101944;28;20353;-83
2023/04/29 09:53:58;;;;;;;;;;;;;;;33.52;21.73;97881.53;5099508;28;20021;-83
2023/04/29 09:56:28;;;;;;;;;;;;;;;33.71;21.75;97882.75;5098438;28;20337;-83
2023/04/29 09:58:54;;;;;;;;;;;;;;;33.86;21.52;97871.25;5095902;28;19938;-83
2023/04/29 10:01:21;;;;;;;;;;;;;;;33.51;21.61;97871.44;5094306;28;19927;-83
2023/04/29 10:03:52;;;;;;;;;;;;;;;33.53;22.18;97873.81;5095091;28;20373;-83
2023/04/29 10:06:18;;;;;;;;;;;;;;;33.95;21.71;97874.69;5102688;28;19920;-83
2023/04/29 10:08:45;;;;;;;;;;;;;;;32.97;20.61;97867.50;5101401;28;19945;-83
2023/04/29 10:11:12;;;;;;;;;;;;;;;33.05;22.77;97871.47;5097954;28;19998;-83
2023/04/29 10:13:41;;;;;;;;;;;;;;;33.42;21.85;97869.53;5098993;28;20010;-83
2023/04/29 10:16:28;;;;;;;;;;;;;;;33.67;21.70;97870.03;5103210;28;20395;-83
2023/04/29 10:18:55;;;;;;;;;;;;;;;33.62;22.49;97874.41;5104202;28;20367;-83
2023/04/29 10:21:28;;;;;;;;;;;;;;;33.03;25.30;97865.50;5104520;28;19974;-83
2023/04/29 10:23:55;;;;;;;;;;;;;;;33.23;21.53;97859.78;5102610;28;20376;-83
2023/04/29 10:26:25;;;;;;;;;;;;;;;33.57;22.92;97866.59;5109442;28;19934;-83
2023/04/29 10:28:53;;;;;;;;;;;;;;;33.61;22.68;97860.69;5103747;28;19924;-83
2023/04/29 10:31:20;;;;;;;;;;;;;;;33.49;20.76;97854.09;5102616;28;19919;-83
2023/04/29 10:33:46;;;;;;;;;;;;;;;33.37;21.90;97856.00;5098582;28;19923;-83
2023/04/29 10:36:13;;;;;;;;;;;;;;;33.44;21.23;97857.66;5096271;28;19920;-83
2023/04/29 10:38:41;;;;;;;;;;;;;;;33.44;22.61;97861.25;5098043;28;20022;-83
2023/04/29 10:41:09;;;;;;;;;;;;;;;33.71;22.24;97854.28;5098757;28;19990;-83
2023/04/29 10:43:36;;;;;;;;;;;;;;;34.01;22.77;97847.00;5101324;28;20386;-83
2023/04/29 10:46:16;;;;;;;;;;;;;;;34.08;20.87;97849.41;5095474;28;22313;-83
2023/04/29 10:48:42;;;;;;;;;;;;;;;34.06;22.69;97849.13;5102433;28;19934;-83
2023/04/29 10:51:08;;;;;;;;;;;;;;;33.93;22.16;97842.28;5098524;28;19989;-83
2023/04/29 10:53:35;;;;;;;;;;;;;;;34.24;22.26;97847.19;5100548;28;19923;-83
2023/04/29 10:56:07;;;;;;;;;;;;;;;34.40;22.31;97837.94;5101584;28;19928;-83
2023/04/29 10:58:34;;;;;;;;;;;;;;;34.37;21.31;97836.09;5102158;28;19978;-88
2023/04/29 11:01:00;;;;;;;;;;;;;;;33.82;20.09;97837.28;5086708;28;19920;-84
2023/04/29 11:03:58;;;;;;;;;;;;;;;33.15;20.89;97833.06;5102040;28;19948;-85
2023/04/29 11:06:45;;;;;;;;;;;;;;;33.33;22.72;97843.28;5076418;28;19958;-85
2023/04/29 11:09:17;;;;;;;;;;;;;;;33.83;23.13;97843.75;5099584;28;19942;-85
2023/04/29 11:11:48;;;;;;;;;;;;;;;34.21;22.15;97834.72;5101540;28;19957;-84
2023/04/29 11:14:15;;;;;;;;;;;;;;;34.23;21.29;97837.84;5096881;28;19924;-84
2023/04/29 11:16:48;;;;;;;;;;;;;;;33.96;20.95;97835.56;5103008;28;20256;-86
2023/04/29 11:19:15;;;;;;;;;;;;;;;33.69;22.01;97833.28;5096181;28;19920;-86
2023/04/29 11:21:43;;;;;;;;;;;;;;;33.72;22.75;97832.28;5096402;28;19920;-86
2023/04/29 11:24:09;;;;;;;;;;;;;;;33.69;20.77;97836.13;5095737;28;19951;-84
2023/04/29 11:26:35;;;;;;;;;;;;;;;32.72;21.49;97826.34;5094239;28;19932;-86
2023/04/29 11:29:03;;;;;;;;;;;;;;;32.95;22.98;97827.38;5106629;28;19920;-86
2023/04/29 11:31:32;;;;;;;;;;;;;;;32.74;21.96;97828.69;5100330;28;19920;-85
2023/04/29 11:33:59;;;;;;;;;;;;;;;32.85;24.54;97837.34;5084121;28;20393;-86
2023/04/29 11:36:26;;;;;;;;;;;;;;;33.22;23.85;97837.50;5078306;28;20402;-84
2023/04/29 11:38:52;;;;;;;;;;;;;;;33.65;22.86;97833.53;5112999;28;19920;-85
2023/04/29 11:41:18;;;;;;;;;;;;;;;33.69;22.72;97836.13;5095455;28;19964;-86
2023/04/29 11:43:45;;;;;;;;;;;;;;;32.84;22.52;97827.25;5106721;28;20020;-86
2023/04/29 11:46:12;;;;;;;;;;;;;;;32.49;23.11;97835.06;5074603;28;19966;-85
2023/04/29 11:48:45;;;;;;;;;;;;;;;32.62;23.17;97836.31;5105779;28;19920;-85
2023/04/29 11:51:11;;;;;;;;;;;;;;;32.84;22.52;97835.78;5106260;28;19920;-85
2023/04/29 11:53:37;;;;;;;;;;;;;;;32.60;21.84;97835.25;5102804;28;19926;-87
2023/04/29 11:56:03;;;;;;;;;;;;;;;32.79;22.61;97833.69;5109875;28;19924;-85
2023/04/29 11:58:29;;;;;;;;;;;;;;;32.97;21.38;97836.19;5100655;28;19924;-85
2023/04/29 12:00:57;;;;;;;;;;;;;;;33.08;21.68;97833.50;5110399;28;20379;-86
2023/04/29 12:03:23;;;;;;;;;;;;;;;33.00;21.10;97829.47;5107666;28;19945;-85
2023/04/29 12:05:50;;;;;;;;;;;;;;;32.98;21.09;97832.06;5106231;28;20030;-85
2023/04/29 12:08:19;;;;;;;;;;;;;;;33.17;22.75;97832.53;5103510;28;20278;-83
2023/04/29 12:10:46;;;;;;;;;;;;;;;33.14;21.63;97827.88;5112915;28;19957;-85
2023/04/29 12:13:12;;;;;;;;;;;;;;;33.00;21.87;97829.47;5113422;28;19920;-87
2023/04/29 12:15:38;;;;;;;;;;;;;;;33.21;22.77;97833.88;5112060;28;20371;-85
2023/04/29 12:18:04;;;;;;;;;;;;;;;33.39;21.29;97832.75;5109614;28;19927;-84
2023/04/29 12:20:31;;;;;;;;;;;;;;;33.26;22.80;97841.69;5106780;28;20434;-85
2023/04/29 12:23:10;;;;;;;;;;;;;;;33.62;20.71;97826.00;5091621;28;20295;-85
2023/04/29 12:25:36;;;;;;;;;;;;;;;33.65;21.29;97830.69;5103193;28;20014;-84
2023/04/29 12:28:03;;;;;;;;;;;;;;;33.56;21.84;97830.84;5106409;28;19928;-85
2023/04/29 12:30:29;;;;;;;;;;;;;;;33.66;22.41;97831.44;5106270;28;19942;-84
2023/04/29 12:32:55;;;;;;;;;;;;;;;33.91;22.07;97824.91;5111538;28;20488;-83
2023/04/29 12:35:21;;;;;;;;;;;;;;;34.03;22.30;97818.00;5106558;28;19920;-86
2023/04/29 12:37:49;;;;;;;;;;;;;;;34.14;22.28;97808.75;5103457;28;19919;-82
2023/04/29 12:40:15;;;;;;;;;;;;;;;34.30;21.75;97810.91;5111924;28;19973;-83
2023/04/29 12:42:43;;;;;;;;;;;;;;;34.29;21.23;97817.91;5105180;28;19963;-85
2023/04/29 12:45:45;;;;;;;;;;;;;;;34.22;21.28;97819.16;5115248;28;19920;-83
2023/04/29 12:48:12;;;;;;;;;;;;;;;34.23;22.07;97811.41;5016595;28;21867;-83
2023/04/29 12:50:39;;;;;;;;;;;;;;;34.23;22.07;97808.56;5089688;28;20379;-83